Poeta Lopez Anglada — EADS — position and weather

sailwx.info

Track history (hours):
 
Tides and Currents Weather Stations Pressure Air Temp Water Temp Dewpoint Dewpoint Depression Visibility Wind Speed Wind Dir Waves Ship Positions

Poeta Lopez Anglada

Last reported at 2018-Feb-25 13:59 UTC. Time now 2018-Feb-25 14:06 UTC.
Position N 36°08' W 005°26'.

Length 134 m; draft 4.5 m.

Type: Passenger vessel. MMSI: 225409000.

Date/timePositionNaut miles runAvg speedWind from/ knotsBaromVisibWave heightAir tempDewpointWater temp
2018-Feb-25 13:59N 36°08' W 005°26'1 2.7
2018-Feb-25 13:30N 36°09' W 005°25'815.9
2018-Feb-25 13:01N 36°01' W 005°25'5 2.0
2018-Feb-25 10:29N 35°57' W 005°29'715.7
2018-Feb-25 10:00N 36°03' W 005°23'5 3.1
2018-Feb-25 08:20N 36°08' W 005°26'0 0.0
2018-Feb-25 08:00N 36°08' W 005°26'3 4.8
2018-Feb-25 07:27N 36°07' W 005°23'716.4
2018-Feb-25 07:00N 35°60' W 005°25'8 4.4
2018-Feb-25 05:09N 35°53' W 005°31'1 7.1
2018-Feb-25 04:58N 35°54' W 005°31'714.3
2018-Feb-25 04:30N 35°60' W 005°27'815.1
2018-Feb-25 04:00N 36°07' W 005°24'2 3.8
2018-Feb-25 03:27N 36°08' W 005°26'0 0.0
2018-Feb-25 02:56N 36°08' W 005°26'2 4.8
2018-Feb-25 02:30N 36°07' W 005°24'816.7
2018-Feb-25 02:00N 35°59' W 005°25'8 3.6
2018-Feb-24 23:47N 35°53' W 005°31'4 9.4
2018-Feb-24 23:24N 35°56' W 005°30'615.1
2018-Feb-24 23:00N 36°01' W 005°26'815.2
2018-Feb-24 22:30N 36°09' W 005°24'2 3.3
2018-Feb-24 22:01N 36°08' W 005°26'0 0.0
2018-Feb-24 21:29N 36°08' W 005°26'0 0.0
2018-Feb-24 21:00N 36°08' W 005°26'0 0.0
2018-Feb-24 20:31N 36°08' W 005°26'5 7.9
2018-Feb-24 19:51N 36°04' W 005°22'616.6
2018-Feb-24 19:30N 35°59' W 005°24'4 1.3
2018-Feb-24 16:23N 35°58' W 005°29'615.5
2018-Feb-24 16:01N 36°03' W 005°25'5 3.0
2018-Feb-24 14:12N 36°08' W 005°26'0 0.5
2018-Feb-24 14:00N 36°08' W 005°26'4 7.2
2018-Feb-24 13:28N 36°05' W 005°23'817.0
2018-Feb-24 13:01N 35°58' W 005°27'2 0.8
2018-Feb-24 10:38N 35°57' W 005°29'215.5
2018-Feb-24 10:29N 35°59' W 005°28'9 2.9
2018-Feb-24 07:32N 36°07' W 005°24'117.6
2018-Feb-24 07:29N 36°06' W 005°24'816.5
2018-Feb-24 07:01N 35°58' W 005°24'8 4.0
2018-Feb-24 04:57N 35°53' W 005°31'4 7.5
2018-Feb-24 04:28N 35°56' W 005°30'714.5
2018-Feb-24 04:00N 36°02' W 005°25'714.4
2018-Feb-24 03:30N 36°09' W 005°25'1 2.7
2018-Feb-24 02:59N 36°08' W 005°26'0 0.0
2018-Feb-24 02:29N 36°08' W 005°26'2 3.8
2018-Feb-24 02:00N 36°08' W 005°24'816.2
2018-Feb-24 01:30N 35°60' W 005°24'9 4.8
2018-Feb-23 23:39N 35°53' W 005°31'1 7.5
2018-Feb-23 23:28N 35°54' W 005°31'511.4
2018-Feb-23 23:01N 35°59' W 005°29'815.1
2018-Feb-23 22:30N 36°05' W 005°24'3 5.9
2018-Feb-23 21:59N 36°08' W 005°26'0 0.0
2018-Feb-23 21:28N 36°08' W 005°26'0 0.0
2018-Feb-23 20:55N 36°08' W 005°26'0 0.2
2018-Feb-23 20:27N 36°08' W 005°26'3 6.5
2018-Feb-23 20:00N 36°06' W 005°24'815.6
2018-Feb-23 19:30N 35°58' W 005°26'3 0.9
2018-Feb-23 16:22N 35°57' W 005°29'514.8
2018-Feb-23 16:01N 36°01' W 005°25'7 3.1
2018-Feb-23 13:42N 36°08' W 005°26'3 7.2
2018-Feb-23 13:20N 36°06' W 005°24'617.3
2018-Feb-23 13:00N 36°01' W 005°25'4 1.7
2018-Feb-23 10:28N 35°58' W 005°29'715.2
2018-Feb-23 10:00N 36°04' W 005°24'5 2.0
2018-Feb-23 07:44N 36°08' W 005°26'3 7.5
2018-Feb-23 07:21N 36°06' W 005°23'616.8
2018-Feb-23 07:00N 36°00' W 005°23'10 4.7
2018-Feb-23 04:55N 35°53' W 005°31'410.5
2018-Feb-23 04:30N 35°57' W 005°30'714.4
2018-Feb-23 04:00N 36°03' W 005°25'611.8
2018-Feb-23 03:30N 36°09' W 005°26'1 1.4
2018-Feb-23 02:59N 36°08' W 005°26'0 0.0
2018-Feb-23 02:17N 36°08' W 005°26'0 0.0
2018-Feb-23 01:57N 36°08' W 005°26'3 5.5
2018-Feb-23 01:29N 36°07' W 005°23'917.7
2018-Feb-23 01:00N 35°58' W 005°26'2 1.0
2018-Feb-22 22:34N 35°57' W 005°29'114.2
2018-Feb-22 22:30N 35°58' W 005°28'714.7
2018-Feb-22 22:00N 36°05' W 005°24'4 3.5
2018-Feb-22 20:55N 36°08' W 005°26'0 0.3
2018-Feb-22 19:53N 36°08' W 005°26'3 8.5
2018-Feb-22 19:30N 36°06' W 005°23'917.0
2018-Feb-22 19:00N 35°58' W 005°27'2 0.7
2018-Feb-22 16:31N 35°58' W 005°29'015.8
2018-Feb-22 16:30N 35°58' W 005°29'714.5
2018-Feb-22 16:00N 36°04' W 005°24'4 2.2
2018-Feb-22 14:04N 36°08' W 005°26'0 5.4
2018-Feb-22 14:00N 36°08' W 005°26'5 9.7
2018-Feb-22 13:30N 36°04' W 005°24'7 2.8
2018-Feb-22 10:55N 35°58' W 005°29'513.5
2018-Feb-22 10:31N 36°02' W 005°24'6 3.0
2018-Feb-22 08:27N 36°08' W 005°26'4 8.3
2018-Feb-22 08:00N 36°05' W 005°23'817.3
2018-Feb-22 07:31N 35°57' W 005°27'6 8.2
2018-Feb-22 06:50N 35°53' W 005°31'0 0.0
2018-Feb-22 06:13N 35°53' W 005°31'3 7.5
2018-Feb-22 05:51N 35°55' W 005°30'615.9
2018-Feb-22 05:31N 36°00' W 005°27'815.5
2018-Feb-22 05:01N 36°07' W 005°24'2 1.9
2018-Feb-22 03:59N 36°08' W 005°26'0 0.0
2018-Feb-22 03:26N 36°08' W 005°26'2 3.6
2018-Feb-22 03:00N 36°09' W 005°25'816.2
2018-Feb-22 02:30N 36°01' W 005°23'1018.4
2018-Feb-22 01:59N 35°54' W 005°31'1 0.5
2018-Feb-22 00:07N 35°53' W 005°31'0 0.4
2018-Feb-21 23:47N 35°53' W 005°31'513.4
2018-Feb-21 23:25N 35°57' W 005°29'410.7
2018-Feb-21 23:01N 36°00' W 005°25'715.0
2018-Feb-21 22:30N 36°08' W 005°24'2 3.4
2018-Feb-21 22:00N 36°08' W 005°26'0 0.0
2018-Feb-21 21:30N 36°08' W 005°26'0 0.0
2018-Feb-21 21:00N 36°08' W 005°26'1 1.8
2018-Feb-21 20:30N 36°09' W 005°26'5 9.7
2018-Feb-21 20:00N 36°04' W 005°23'917.5
2018-Feb-21 19:31N 35°56' W 005°28'4 8.6
2018-Feb-21 18:59N 35°53' W 005°31'5 3.2
2018-Feb-21 17:20N 35°58' W 005°29'514.3
2018-Feb-21 17:00N 36°01' W 005°25'710.6
2018-Feb-21 16:22N 36°08' W 005°26'0 0.1
2018-Feb-21 14:13N 36°08' W 005°26'3 7.5
2018-Feb-21 13:48N 36°06' W 005°23'517.1
2018-Feb-21 13:30N 36°01' W 005°23'6 1.9
2018-Feb-21 10:25N 35°57' W 005°29'512.5
2018-Feb-21 10:00N 36°01' W 005°25'714.5
2018-Feb-21 09:30N 36°09' W 005°26'0 0.2
2018-Feb-21 07:32N 36°09' W 005°26'0 9.2
2018-Feb-21 07:30N 36°09' W 005°26'612.4
2018-Feb-21 07:00N 36°03' W 005°24'7 3.0
2018-Feb-21 04:30N 35°57' W 005°29'815.5
2018-Feb-21 04:00N 36°03' W 005°24'5 9.9
2018-Feb-21 03:31N 36°08' W 005°26'0 0.8
2018-Feb-21 03:00N 36°08' W 005°26'0 0.0
2018-Feb-21 02:30N 36°08' W 005°26'1 2.7
2018-Feb-21 02:00N 36°09' W 005°25'815.6
2018-Feb-21 01:31N 36°01' W 005°24'1018.5
2018-Feb-21 00:58N 35°53' W 005°31'0 0.6
2018-Feb-21 00:29N 35°53' W 005°31'0 0.0
2018-Feb-21 00:00N 35°53' W 005°31'0 0.0
2018-Feb-20 23:28N 35°53' W 005°31'2 2.8
2018-Feb-20 22:52N 35°55' W 005°31'412.6
2018-Feb-20 22:30N 35°59' W 005°28'713.7
2018-Feb-20 22:00N 36°04' W 005°24'4 8.1
2018-Feb-20 21:31N 36°08' W 005°26'0 0.2
2018-Feb-20 20:59N 36°08' W 005°26'0 0.0
2018-Feb-20 20:30N 36°08' W 005°26'0 0.6
2018-Feb-20 20:01N 36°08' W 005°26'5 9.3
2018-Feb-20 19:31N 36°04' W 005°23'917.7
2018-Feb-20 18:59N 35°56' W 005°29'1 0.4
2018-Feb-20 16:23N 35°57' W 005°29'615.3
2018-Feb-20 16:00N 36°02' W 005°25'713.6
2018-Feb-20 15:30N 36°09' W 005°26'1 0.5
2018-Feb-20 13:45N 36°08' W 005°26'3 7.1
2018-Feb-20 13:16N 36°05' W 005°23'517.5
2018-Feb-20 13:00N 36°01' W 005°25'4 1.8
2018-Feb-20 10:31N 35°58' W 005°29'214.1
2018-Feb-20 10:24N 35°59' W 005°28'614.2
2018-Feb-20 10:00N 36°04' W 005°24'4 2.8
2018-Feb-20 08:32N 36°08' W 005°26'0 0.9
2018-Feb-20 08:19N 36°08' W 005°26'0 0.0
2018-Feb-20 07:59N 36°08' W 005°26'0 0.0
2018-Feb-20 07:29N 36°08' W 005°26'0 0.0
2018-Feb-20 07:00N 36°08' W 005°26'0 0.0
2018-Feb-20 06:30N 36°08' W 005°26'0 0.0
2018-Feb-20 06:00N 36°08' W 005°26'0 0.0
2018-Feb-20 05:31N 36°08' W 005°26'0 0.0
2018-Feb-20 05:00N 36°08' W 005°26'0 0.0
2018-Feb-20 04:30N 36°08' W 005°26'0 0.0
2018-Feb-20 04:00N 36°08' W 005°26'0 0.0
2018-Feb-20 03:30N 36°08' W 005°26'0 0.0
2018-Feb-20 03:01N 36°08' W 005°26'0 0.4
2018-Feb-20 02:30N 36°08' W 005°26'1 1.4
2018-Feb-20 01:59N 36°09' W 005°26'511.5
2018-Feb-20 01:31N 36°04' W 005°22'814.9
2018-Feb-20 01:00N 35°58' W 005°27'6 2.8
2018-Feb-19 22:48N 35°53' W 005°31'412.4
2018-Feb-19 22:30N 35°56' W 005°30'714.3
2018-Feb-19 22:00N 36°02' W 005°24'714.5
2018-Feb-19 21:30N 36°09' W 005°26'1 0.6
2018-Feb-19 19:35N 36°08' W 005°26'0 4.8
2018-Feb-19 19:30N 36°08' W 005°26'5 9.9
2018-Feb-19 19:00N 36°04' W 005°24'917.5
2018-Feb-19 18:30N 35°56' W 005°30'0 0.1
2018-Feb-19 16:18N 35°56' W 005°30'415.3
2018-Feb-19 16:00N 35°60' W 005°26'714.8
2018-Feb-19 15:30N 36°07' W 005°24'2 1.1
2018-Feb-19 13:39N 36°08' W 005°26'1 6.8
2018-Feb-19 13:30N 36°09' W 005°26'714.0
2018-Feb-19 13:00N 36°02' W 005°24'7 3.0
2018-Feb-19 10:35N 35°57' W 005°29'115.9
2018-Feb-19 10:30N 35°58' W 005°29'815.0
2018-Feb-19 10:00N 36°04' W 005°24'4 8.7
2018-Feb-19 09:30N 36°08' W 005°26'  
2018-Feb-15 22:52N 35°57' W 005°31'616.4
2018-Feb-15 22:30N 36°01' W 005°26'816.0
2018-Feb-15 22:01N 36°09' W 005°25'1 2.3
2018-Feb-15 21:24N 36°08' W 005°26'0 0.1
2018-Feb-15 20:39N 36°08' W 005°26'1 5.8
2018-Feb-15 20:30N 36°09' W 005°26'611.8
2018-Feb-15 20:01N 36°03' W 005°24'4 1.1
2018-Feb-15 16:16N 35°59' W 005°27'415.3
2018-Feb-15 16:00N 36°03' W 005°24'  
Track history (hours):
 
Tides and Currents Weather Stations Pressure Air Temp Water Temp Dewpoint Dewpoint Depression Visibility Wind Speed Wind Dir Waves Ship Positions

Poeta Lopez Anglada

Last reported at 2018-Feb-25 13:59 UTC. Time now 2018-Feb-25 14:06 UTC.
Position N 36°08' W 005°26'.

Length 134 m; draft 4.5 m.

Type: Passenger vessel. MMSI: 225409000.

Date/timePositionNaut miles runAvg speedWind from/ knotsBaromVisibWave heightAir tempDewpointWater temp
2018-Feb-25 13:59N 36°08' W 005°26'1 2.7
2018-Feb-25 13:30N 36°09' W 005°25'815.9
2018-Feb-25 13:01N 36°01' W 005°25'5 2.0
2018-Feb-25 10:29N 35°57' W 005°29'715.7
2018-Feb-25 10:00N 36°03' W 005°23'5 3.1
2018-Feb-25 08:20N 36°08' W 005°26'0 0.0
2018-Feb-25 08:00N 36°08' W 005°26'3 4.8
2018-Feb-25 07:27N 36°07' W 005°23'716.4
2018-Feb-25 07:00N 35°60' W 005°25'8 4.4
2018-Feb-25 05:09N 35°53' W 005°31'1 7.1
2018-Feb-25 04:58N 35°54' W 005°31'714.3
2018-Feb-25 04:30N 35°60' W 005°27'815.1
2018-Feb-25 04:00N 36°07' W 005°24'2 3.8
2018-Feb-25 03:27N 36°08' W 005°26'0 0.0
2018-Feb-25 02:56N 36°08' W 005°26'2 4.8
2018-Feb-25 02:30N 36°07' W 005°24'816.7
2018-Feb-25 02:00N 35°59' W 005°25'8 3.6
2018-Feb-24 23:47N 35°53' W 005°31'4 9.4
2018-Feb-24 23:24N 35°56' W 005°30'615.1
2018-Feb-24 23:00N 36°01' W 005°26'815.2
2018-Feb-24 22:30N 36°09' W 005°24'2 3.3
2018-Feb-24 22:01N 36°08' W 005°26'0 0.0
2018-Feb-24 21:29N 36°08' W 005°26'0 0.0
2018-Feb-24 21:00N 36°08' W 005°26'0 0.0
2018-Feb-24 20:31N 36°08' W 005°26'5 7.9
2018-Feb-24 19:51N 36°04' W 005°22'616.6
2018-Feb-24 19:30N 35°59' W 005°24'4 1.3
2018-Feb-24 16:23N 35°58' W 005°29'615.5
2018-Feb-24 16:01N 36°03' W 005°25'5 3.0
2018-Feb-24 14:12N 36°08' W 005°26'0 0.5
2018-Feb-24 14:00N 36°08' W 005°26'4 7.2
2018-Feb-24 13:28N 36°05' W 005°23'817.0
2018-Feb-24 13:01N 35°58' W 005°27'2 0.8
2018-Feb-24 10:38N 35°57' W 005°29'215.5
2018-Feb-24 10:29N 35°59' W 005°28'9 2.9
2018-Feb-24 07:32N 36°07' W 005°24'117.6
2018-Feb-24 07:29N 36°06' W 005°24'816.5
2018-Feb-24 07:01N 35°58' W 005°24'8 4.0
2018-Feb-24 04:57N 35°53' W 005°31'4 7.5
2018-Feb-24 04:28N 35°56' W 005°30'714.5
2018-Feb-24 04:00N 36°02' W 005°25'714.4
2018-Feb-24 03:30N 36°09' W 005°25'1 2.7
2018-Feb-24 02:59N 36°08' W 005°26'0 0.0
2018-Feb-24 02:29N 36°08' W 005°26'2 3.8
2018-Feb-24 02:00N 36°08' W 005°24'816.2
2018-Feb-24 01:30N 35°60' W 005°24'9 4.8
2018-Feb-23 23:39N 35°53' W 005°31'1 7.5
2018-Feb-23 23:28N 35°54' W 005°31'511.4
2018-Feb-23 23:01N 35°59' W 005°29'815.1
2018-Feb-23 22:30N 36°05' W 005°24'3 5.9
2018-Feb-23 21:59N 36°08' W 005°26'0 0.0
2018-Feb-23 21:28N 36°08' W 005°26'0 0.0
2018-Feb-23 20:55N 36°08' W 005°26'0 0.2
2018-Feb-23 20:27N 36°08' W 005°26'3 6.5
2018-Feb-23 20:00N 36°06' W 005°24'815.6
2018-Feb-23 19:30N 35°58' W 005°26'3 0.9
2018-Feb-23 16:22N 35°57' W 005°29'514.8
2018-Feb-23 16:01N 36°01' W 005°25'7 3.1
2018-Feb-23 13:42N 36°08' W 005°26'3 7.2
2018-Feb-23 13:20N 36°06' W 005°24'617.3
2018-Feb-23 13:00N 36°01' W 005°25'4 1.7
2018-Feb-23 10:28N 35°58' W 005°29'715.2
2018-Feb-23 10:00N 36°04' W 005°24'5 2.0
2018-Feb-23 07:44N 36°08' W 005°26'3 7.5
2018-Feb-23 07:21N 36°06' W 005°23'616.8
2018-Feb-23 07:00N 36°00' W 005°23'10 4.7
2018-Feb-23 04:55N 35°53' W 005°31'410.5
2018-Feb-23 04:30N 35°57' W 005°30'714.4
2018-Feb-23 04:00N 36°03' W 005°25'611.8
2018-Feb-23 03:30N 36°09' W 005°26'1 1.4
2018-Feb-23 02:59N 36°08' W 005°26'0 0.0
2018-Feb-23 02:17N 36°08' W 005°26'0 0.0
2018-Feb-23 01:57N 36°08' W 005°26'3 5.5
2018-Feb-23 01:29N 36°07' W 005°23'917.7
2018-Feb-23 01:00N 35°58' W 005°26'2 1.0
2018-Feb-22 22:34N 35°57' W 005°29'114.2
2018-Feb-22 22:30N 35°58' W 005°28'714.7
2018-Feb-22 22:00N 36°05' W 005°24'4 3.5
2018-Feb-22 20:55N 36°08' W 005°26'0 0.3
2018-Feb-22 19:53N 36°08' W 005°26'3 8.5
2018-Feb-22 19:30N 36°06' W 005°23'917.0
2018-Feb-22 19:00N 35°58' W 005°27'2 0.7
2018-Feb-22 16:31N 35°58' W 005°29'015.8
2018-Feb-22 16:30N 35°58' W 005°29'714.5
2018-Feb-22 16:00N 36°04' W 005°24'4 2.2
2018-Feb-22 14:04N 36°08' W 005°26'0 5.4
2018-Feb-22 14:00N 36°08' W 005°26'5 9.7
2018-Feb-22 13:30N 36°04' W 005°24'7 2.8
2018-Feb-22 10:55N 35°58' W 005°29'513.5
2018-Feb-22 10:31N 36°02' W 005°24'6 3.0
2018-Feb-22 08:27N 36°08' W 005°26'4 8.3
2018-Feb-22 08:00N 36°05' W 005°23'817.3
2018-Feb-22 07:31N 35°57' W 005°27'6 8.2
2018-Feb-22 06:50N 35°53' W 005°31'0 0.0
2018-Feb-22 06:13N 35°53' W 005°31'3 7.5
2018-Feb-22 05:51N 35°55' W 005°30'615.9
2018-Feb-22 05:31N 36°00' W 005°27'815.5
2018-Feb-22 05:01N 36°07' W 005°24'2 1.9
2018-Feb-22 03:59N 36°08' W 005°26'0 0.0
2018-Feb-22 03:26N 36°08' W 005°26'2 3.6
2018-Feb-22 03:00N 36°09' W 005°25'816.2
2018-Feb-22 02:30N 36°01' W 005°23'1018.4
2018-Feb-22 01:59N 35°54' W 005°31'1 0.5
2018-Feb-22 00:07N 35°53' W 005°31'0 0.4
2018-Feb-21 23:47N 35°53' W 005°31'513.4
2018-Feb-21 23:25N 35°57' W 005°29'410.7
2018-Feb-21 23:01N 36°00' W 005°25'715.0
2018-Feb-21 22:30N 36°08' W 005°24'2 3.4
2018-Feb-21 22:00N 36°08' W 005°26'0 0.0
2018-Feb-21 21:30N 36°08' W 005°26'0 0.0
2018-Feb-21 21:00N 36°08' W 005°26'1 1.8
2018-Feb-21 20:30N 36°09' W 005°26'5 9.7
2018-Feb-21 20:00N 36°04' W 005°23'917.5
2018-Feb-21 19:31N 35°56' W 005°28'4 8.6
2018-Feb-21 18:59N 35°53' W 005°31'5 3.2
2018-Feb-21 17:20N 35°58' W 005°29'514.3
2018-Feb-21 17:00N 36°01' W 005°25'710.6
2018-Feb-21 16:22N 36°08' W 005°26'0 0.1
2018-Feb-21 14:13N 36°08' W 005°26'3 7.5
2018-Feb-21 13:48N 36°06' W 005°23'517.1
2018-Feb-21 13:30N 36°01' W 005°23'6 1.9
2018-Feb-21 10:25N 35°57' W 005°29'512.5
2018-Feb-21 10:00N 36°01' W 005°25'714.5
2018-Feb-21 09:30N 36°09' W 005°26'0 0.2
2018-Feb-21 07:32N 36°09' W 005°26'0 9.2
2018-Feb-21 07:30N 36°09' W 005°26'612.4
2018-Feb-21 07:00N 36°03' W 005°24'7 3.0
2018-Feb-21 04:30N 35°57' W 005°29'815.5
2018-Feb-21 04:00N 36°03' W 005°24'5 9.9
2018-Feb-21 03:31N 36°08' W 005°26'0 0.8
2018-Feb-21 03:00N 36°08' W 005°26'0 0.0
2018-Feb-21 02:30N 36°08' W 005°26'1 2.7
2018-Feb-21 02:00N 36°09' W 005°25'815.6
2018-Feb-21 01:31N 36°01' W 005°24'1018.5
2018-Feb-21 00:58N 35°53' W 005°31'0 0.6
2018-Feb-21 00:29N 35°53' W 005°31'0 0.0
2018-Feb-21 00:00N 35°53' W 005°31'0 0.0
2018-Feb-20 23:28N 35°53' W 005°31'2 2.8
2018-Feb-20 22:52N 35°55' W 005°31'412.6
2018-Feb-20 22:30N 35°59' W 005°28'713.7
2018-Feb-20 22:00N 36°04' W 005°24'4 8.1
2018-Feb-20 21:31N 36°08' W 005°26'0 0.2
2018-Feb-20 20:59N 36°08' W 005°26'0 0.0
2018-Feb-20 20:30N 36°08' W 005°26'0 0.6
2018-Feb-20 20:01N 36°08' W 005°26'5 9.3
2018-Feb-20 19:31N 36°04' W 005°23'917.7
2018-Feb-20 18:59N 35°56' W 005°29'1 0.4
2018-Feb-20 16:23N 35°57' W 005°29'615.3
2018-Feb-20 16:00N 36°02' W 005°25'713.6
2018-Feb-20 15:30N 36°09' W 005°26'1 0.5
2018-Feb-20 13:45N 36°08' W 005°26'3 7.1
2018-Feb-20 13:16N 36°05' W 005°23'517.5
2018-Feb-20 13:00N 36°01' W 005°25'4 1.8
2018-Feb-20 10:31N 35°58' W 005°29'214.1
2018-Feb-20 10:24N 35°59' W 005°28'614.2
2018-Feb-20 10:00N 36°04' W 005°24'4 2.8
2018-Feb-20 08:32N 36°08' W 005°26'0 0.9
2018-Feb-20 08:19N 36°08' W 005°26'0 0.0
2018-Feb-20 07:59N 36°08' W 005°26'0 0.0
2018-Feb-20 07:29N 36°08' W 005°26'0 0.0
2018-Feb-20 07:00N 36°08' W 005°26'0 0.0
2018-Feb-20 06:30N 36°08' W 005°26'0 0.0
2018-Feb-20 06:00N 36°08' W 005°26'0 0.0
2018-Feb-20 05:31N 36°08' W 005°26'0 0.0
2018-Feb-20 05:00N 36°08' W 005°26'0 0.0
2018-Feb-20 04:30N 36°08' W 005°26'0 0.0
2018-Feb-20 04:00N 36°08' W 005°26'0 0.0
2018-Feb-20 03:30N 36°08' W 005°26'0 0.0
2018-Feb-20 03:01N 36°08' W 005°26'0 0.4
2018-Feb-20 02:30N 36°08' W 005°26'1 1.4
2018-Feb-20 01:59N 36°09' W 005°26'511.5
2018-Feb-20 01:31N 36°04' W 005°22'814.9
2018-Feb-20 01:00N 35°58' W 005°27'6 2.8
2018-Feb-19 22:48N 35°53' W 005°31'412.4
2018-Feb-19 22:30N 35°56' W 005°30'714.3
2018-Feb-19 22:00N 36°02' W 005°24'714.5
2018-Feb-19 21:30N 36°09' W 005°26'1 0.6
2018-Feb-19 19:35N 36°08' W 005°26'0 4.8
2018-Feb-19 19:30N 36°08' W 005°26'5 9.9
2018-Feb-19 19:00N 36°04' W 005°24'917.5
2018-Feb-19 18:30N 35°56' W 005°30'0 0.1
2018-Feb-19 16:18N 35°56' W 005°30'415.3
2018-Feb-19 16:00N 35°60' W 005°26'714.8
2018-Feb-19 15:30N 36°07' W 005°24'2 1.1
2018-Feb-19 13:39N 36°08' W 005°26'1 6.8
2018-Feb-19 13:30N 36°09' W 005°26'714.0
2018-Feb-19 13:00N 36°02' W 005°24'7 3.0
2018-Feb-19 10:35N 35°57' W 005°29'115.9
2018-Feb-19 10:30N 35°58' W 005°29'815.0
2018-Feb-19 10:00N 36°04' W 005°24'4 8.7
2018-Feb-19 09:30N 36°08' W 005°26'  
2018-Feb-15 22:52N 35°57' W 005°31'616.4
2018-Feb-15 22:30N 36°01' W 005°26'816.0
2018-Feb-15 22:01N 36°09' W 005°25'1 2.3
2018-Feb-15 21:24N 36°08' W 005°26'0 0.1
2018-Feb-15 20:39N 36°08' W 005°26'1 5.8
2018-Feb-15 20:30N 36°09' W 005°26'611.8
2018-Feb-15 20:01N 36°03' W 005°24'4 1.1
2018-Feb-15 16:16N 35°59' W 005°27'415.3
2018-Feb-15 16:00N 36°03' W 005°24'  

Dump ship's entire track history